Time;durP1;ratioP1;P1;durP2;ratioP2;P2;SDS_P1;SDS_P2;PMS_P1;PMS_P2;Temp;Humidity;BMP_temperature;BMP_pressure;BME280_temperature;BME280_humidity;BME280_pressure;Samples;Min_cycle;Max_cycle;Signal;HPM_P1;HPM_P2
2023/06/29 00:02:45;;;;;;;;;;;;;;;20.78;56.86914;101679.3;;;;-68
2023/06/29 00:07:45;;;;;;;;;;;;;;;20.75;57.35547;101672.5;;;;-67
2023/06/29 00:12:44;;;;;;;;;;;;;;;20.72;57.5791;101675.3;;;;-69
2023/06/29 00:17:47;;;;;;;;;;;;;;;20.7;58.55566;101674.9;;;;-70
2023/06/29 00:22:47;;;;;;;;;;;;;;;20.69;58.69238;101670.5;;;;-70
2023/06/29 00:27:44;;;;;;;;;;;;;;;20.65;58.5957;101667.7;;;;-68
2023/06/29 00:29:13;;;;;;;0.5;0.3;;;;;;;;;;;;;-69
2023/06/29 00:32:45;;;;;;;;;;;;;;;20.65;58.68652;101665.6;;;;-68
2023/06/29 00:37:45;;;;;;;;;;;;;;;20.62;58.84277;101664.1;;;;-68
2023/06/29 00:42:44;;;;;;;;;;;;;;;20.61;59.08105;101658.1;;;;-69
2023/06/29 00:47:45;;;;;;;;;;;;;;;20.59;59.33984;101653.9;;;;-69
2023/06/29 00:52:47;;;;;;;;;;;;;;;20.57;59.95313;101650.1;;;;-67
2023/06/29 00:57:45;;;;;;;;;;;;;;;20.55;59.42578;101643.3;;;;-68
2023/06/29 00:59:15;;;;;;;0.2;0.1;;;;;;;;;;;;;-67
2023/06/29 01:02:45;;;;;;;;;;;;;;;20.54;59.69727;101642.9;;;;-68
2023/06/29 01:07:48;;;;;;;;;;;;;;;20.53;59.41113;101639.4;;;;-68
2023/06/29 01:12:46;;;;;;;;;;;;;;;20.52;59.1709;101632.7;;;;-68
2023/06/29 01:17:45;;;;;;;;;;;;;;;20.49;59.81641;101630.8;;;;-68
2023/06/29 01:22:47;;;;;;;;;;;;;;;20.46;59.34668;101631.1;;;;-68
2023/06/29 01:27:45;;;;;;;;;;;;;;;20.45;59.25293;101626.5;;;;-68
2023/06/29 01:29:24;;;;;;;0.4;0.2;;;;;;;;;;;;;-68
2023/06/29 01:32:45;;;;;;;;;;;;;;;20.42;59.24902;101618.1;;;;-68
2023/06/29 01:37:49;;;;;;;;;;;;;;;20.4;59.11035;101611.2;;;;-69
2023/06/29 01:42:45;;;;;;;;;;;;;;;20.38;59.10742;101607.6;;;;-68
2023/06/29 01:47:47;;;;;;;;;;;;;;;20.37;59.40137;101602.6;;;;-69
2023/06/29 01:52:45;;;;;;;;;;;;;;;20.34;59.27246;101604.1;;;;-68
2023/06/29 01:57:44;;;;;;;;;;;;;;;20.32;59.52051;101598.7;;;;-68
2023/06/29 01:59:21;;;;;;;0.2;0.1;;;;;;;;;;;;;-68
2023/06/29 02:02:48;;;;;;;;;;;;;;;20.28;59.90137;101598.5;;;;-68
2023/06/29 02:07:45;;;;;;;;;;;;;;;20.24;59.68164;101590.2;;;;-68
2023/06/29 02:12:45;;;;;;;;;;;;;;;20.21;59.45996;101585.5;;;;-68
2023/06/29 02:17:47;;;;;;;;;;;;;;;20.19;59.65234;101579.4;;;;-68
2023/06/29 02:22:44;;;;;;;;;;;;;;;20.15;59.88379;101582;;;;-68
2023/06/29 02:27:45;;;;;;;;;;;;;;;20.11;59.65039;101576;;;;-68
2023/06/29 02:29:24;;;;;;;0.2;0.1;;;;;;;;;;;;;-69
2023/06/29 02:32:45;;;;;;;;;;;;;;;20.07;59.6123;101574.5;;;;-68
2023/06/29 02:37:44;;;;;;;;;;;;;;;20.02;59.68652;101568.5;;;;-68
2023/06/29 02:42:48;;;;;;;;;;;;;;;19.99;59.51172;101570.7;;;;-68
2023/06/29 02:47:44;;;;;;;;;;;;;;;19.96;59.67676;101567.6;;;;-68
2023/06/29 02:52:45;;;;;;;;;;;;;;;19.94;59.73047;101562;;;;-68
2023/06/29 02:57:44;;;;;;;;;;;;;;;19.91;59.875;101559.8;;;;-70
2023/06/29 02:59:28;;;;;;;0.2;0.1;;;;;;;;;;;;;-70
2023/06/29 03:02:44;;;;;;;;;;;;;;;19.87;60.06348;101554.5;;;;-68
2023/06/29 03:07:44;;;;;;;;;;;;;;;19.82;59.8418;101546.2;;;;-68
2023/06/29 03:12:45;;;;;;;;;;;;;;;19.79;59.92773;101544.3;;;;-68
2023/06/29 03:17:44;;;;;;;;;;;;;;;19.79;59.82422;101541.8;;;;-69
2023/06/29 03:22:45;;;;;;;;;;;;;;;19.77;60.03906;101539.3;;;;-69
2023/06/29 03:27:45;;;;;;;;;;;;;;;19.73;60.57813;101537.3;;;;-69
2023/06/29 03:29:30;;;;;;;0.6;0.3;;;;;;;;;;;;;-67
2023/06/29 03:32:45;;;;;;;;;;;;;;;19.71;60.72363;101522.9;;;;-69
2023/06/29 03:37:44;;;;;;;;;;;;;;;19.71;60.39258;101525.6;;;;-69
2023/06/29 03:42:45;;;;;;;;;;;;;;;19.68;60.66211;101519.9;;;;-68
2023/06/29 03:47:44;;;;;;;;;;;;;;;19.67;61.50293;101517.4;;;;-69
2023/06/29 03:52:44;;;;;;;;;;;;;;;19.65;61.7373;101512.2;;;;-69
2023/06/29 03:57:45;;;;;;;;;;;;;;;19.64;61.43066;101516.2;;;;-68
2023/06/29 03:59:36;;;;;;;0.4;0.2;;;;;;;;;;;;;-68
2023/06/29 04:02:45;;;;;;;;;;;;;;;19.64;61.22656;101510.3;;;;-70
2023/06/29 04:07:44;;;;;;;;;;;;;;;19.63;61.62207;101514.5;;;;-68
2023/06/29 04:12:44;;;;;;;;;;;;;;;19.63;61.42773;101507.3;;;;-70
2023/06/29 04:17:44;;;;;;;;;;;;;;;19.63;61.74609;101508.1;;;;-69
2023/06/29 04:22:45;;;;;;;;;;;;;;;19.65;62.88477;101501.2;;;;-69
2023/06/29 04:27:47;;;;;;;;;;;;;;;19.67;62.79785;101498.8;;;;-70
2023/06/29 04:29:37;;;;;;;0.6;0.3;;;;;;;;;;;;;-68
2023/06/29 04:32:44;;;;;;;;;;;;;;;19.7;62.83496;101495.3;;;;-69
2023/06/29 04:37:45;;;;;;;;;;;;;;;19.74;63.22754;101494.2;;;;-68
2023/06/29 04:42:48;;;;;;;;;;;;;;;19.79;63.87012;101494.8;;;;-69
2023/06/29 04:47:45;;;;;;;;;;;;;;;19.83;63.69434;101489.3;;;;-69
2023/06/29 04:52:44;;;;;;;;;;;;;;;19.83;63.44434;101488.6;;;;-69
2023/06/29 04:57:44;;;;;;;;;;;;;;;19.84;64.04883;101488;;;;-68
2023/06/29 04:59:39;;;;;;;0.3;0.1;;;;;;;;;;;;;-69
2023/06/29 05:02:44;;;;;;;;;;;;;;;19.85;64.27539;101485.3;;;;-71
2023/06/29 05:07:44;;;;;;;;;;;;;;;19.86;64.16309;101487;;;;-70
2023/06/29 05:12:45;;;;;;;;;;;;;;;19.88;64.12012;101483.6;;;;-69
2023/06/29 05:17:46;;;;;;;;;;;;;;;19.9;63.5791;101482;;;;-70
2023/06/29 05:22:44;;;;;;;;;;;;;;;19.92;64.49023;101476.5;;;;-68
2023/06/29 05:27:44;;;;;;;;;;;;;;;19.96;64.50879;101469.4;;;;-67
2023/06/29 05:29:43;;;;;;;0.2;0.1;;;;;;;;;;;;;-69
2023/06/29 05:32:44;;;;;;;;;;;;;;;20;64.77539;101469.1;;;;-69
2023/06/29 05:37:44;;;;;;;;;;;;;;;20.02;65.12012;101465.6;;;;-68
2023/06/29 05:42:44;;;;;;;;;;;;;;;20.06;65.39746;101467.6;;;;-70
2023/06/29 05:47:44;;;;;;;;;;;;;;;20.1;65.65332;101465.6;;;;-69
2023/06/29 05:52:45;;;;;;;;;;;;;;;20.13;66.39551;101461.5;;;;-69
2023/06/29 05:57:44;;;;;;;;;;;;;;;20.17;66.44727;101466;;;;-68
2023/06/29 05:59:45;;;;;;;0.2;0.1;;;;;;;;;;;;;-70
2023/06/29 06:02:44;;;;;;;;;;;;;;;20.2;67.55273;101463.2;;;;-69
2023/06/29 06:07:44;;;;;;;;;;;;;;;20.24;67.53613;101463.7;;;;-68
2023/06/29 06:12:44;;;;;;;;;;;;;;;20.29;67.24902;101465.2;;;;-69
2023/06/29 06:17:44;;;;;;;;;;;;;;;20.35;67.97266;101468.2;;;;-68
2023/06/29 06:22:47;;;;;;;;;;;;;;;20.41;68.15234;101467;;;;-69
2023/06/29 06:27:47;;;;;;;;;;;;;;;20.43;70.14258;101470.9;;;;-68
2023/06/29 06:29:51;;;;;;;0.2;0.1;;;;;;;;;;;;;-68
2023/06/29 06:32:45;;;;;;;;;;;;;;;20.49;68.32422;101477.3;;;;-68
2023/06/29 06:37:45;;;;;;;;;;;;;;;20.51;70.05273;101468.8;;;;-69
2023/06/29 06:42:44;;;;;;;;;;;;;;;20.57;69.93848;101461.4;;;;-69
2023/06/29 06:47:44;;;;;;;;;;;;;;;20.68;69.41016;101461.8;;;;-68
2023/06/29 06:52:44;;;;;;;;;;;;;;;20.79;70.68848;101459.2;;;;-70
2023/06/29 06:57:44;;;;;;;;;;;;;;;20.86;72.65332;101457.7;;;;-69
2023/06/29 06:59:52;;;;;;;0.2;0.1;;;;;;;;;;;;;-69
2023/06/29 07:02:44;;;;;;;;;;;;;;;21.01;73.66602;101457.1;;;;-69
2023/06/29 07:07:46;;;;;;;;;;;;;;;21.19;72.10352;101461.7;;;;-68
2023/06/29 07:12:46;;;;;;;;;;;;;;;21.28;72.20996;101466.4;;;;-68
2023/06/29 07:17:44;;;;;;;;;;;;;;;21.33;71.30762;101465.9;;;;-69
2023/06/29 07:22:44;;;;;;;;;;;;;;;21.42;71.89063;101461.8;;;;-67
2023/06/29 07:27:47;;;;;;;;;;;;;;;21.5;71.23145;101457.2;;;;-69
2023/06/29 07:29:55;;;;;;;0.4;0.2;;;;;;;;;;;;;-68
2023/06/29 07:32:44;;;;;;;;;;;;;;;21.52;71.11035;101458.4;;;;-68
2023/06/29 07:37:44;;;;;;;;;;;;;;;21.56;70.89941;101457.5;;;;-69
2023/06/29 07:42:45;;;;;;;;;;;;;;;21.6;70.78027;101452.4;;;;-68
2023/06/29 07:47:45;;;;;;;;;;;;;;;21.62;70.36328;101449.8;;;;-68
2023/06/29 07:52:45;;;;;;;;;;;;;;;21.63;70.78613;101454.7;;;;-68
2023/06/29 07:57:44;;;;;;;;;;;;;;;21.69;70.16895;101448.2;;;;-69
2023/06/29 07:59:59;;;;;;;0.4;0.2;;;;;;;;;;;;;-69
2023/06/29 08:02:45;;;;;;;;;;;;;;;21.65;70.83594;101448.2;;;;-68
2023/06/29 08:07:45;;;;;;;;;;;;;;;21.72;70.15137;101441.8;;;;-69
2023/06/29 08:12:44;;;;;;;;;;;;;;;21.73;69.8916;101440.3;;;;-70
2023/06/29 08:17:47;;;;;;;;;;;;;;;21.68;71.02246;101437.5;;;;-70
2023/06/29 08:22:48;;;;;;;;;;;;;;;21.75;70.63379;101447.3;;;;-69
2023/06/29 08:27:45;;;;;;;;;;;;;;;21.79;71.36816;101442.9;;;;-69
2023/06/29 08:30:02;;;;;;;0.3;0.2;;;;;;;;;;;;;-69
2023/06/29 08:32:48;;;;;;;;;;;;;;;21.84;71.22949;101440.4;;;;-69
2023/06/29 08:37:45;;;;;;;;;;;;;;;21.94;71.88281;101435.7;;;;-69
2023/06/29 08:42:48;;;;;;;;;;;;;;;22.07;71.83496;101431.9;;;;-69
2023/06/29 08:47:46;;;;;;;;;;;;;;;22.19;72.15137;101423.6;;;;-68
2023/06/29 08:52:45;;;;;;;;;;;;;;;22.31;70.56348;101425.3;;;;-68
2023/06/29 08:57:45;;;;;;;;;;;;;;;22.39;71.78418;101428.6;;;;-68
2023/06/29 09:00:07;;;;;;;0.3;0.2;;;;;;;;;;;;;-68
2023/06/29 09:02:45;;;;;;;;;;;;;;;22.62;70.46191;101430.6;;;;-68
2023/06/29 09:07:44;;;;;;;;;;;;;;;22.73;70.67676;101428.5;;;;-69
2023/06/29 09:12:44;;;;;;;;;;;;;;;22.92;69.33496;101426.6;;;;-68
2023/06/29 09:17:46;;;;;;;;;;;;;;;23.2;68.83008;101421.9;;;;-69
2023/06/29 09:22:48;;;;;;;;;;;;;;;23.62;66.94824;101420;;;;-70
2023/06/29 09:27:45;;;;;;;;;;;;;;;23.93;66.60645;101417.8;;;;-69
2023/06/29 09:30:10;;;;;;;1;0.5;;;;;;;;;;;;;-67
2023/06/29 09:32:44;;;;;;;;;;;;;;;24.32;64.59961;101412.3;;;;-70
2023/06/29 09:37:47;;;;;;;;;;;;;;;24.63;63.39258;101415.2;;;;-68
2023/06/29 09:42:44;;;;;;;;;;;;;;;24.78;62.91992;101422.6;;;;-69
2023/06/29 09:47:51;;;;;;;;;;;;;;;24.85;62.90723;101420.4;;;;-69
2023/06/29 09:52:51;;;;;;;;;;;;;;;24.91;62.29395;101418.1;;;;-69
2023/06/29 09:57:46;;;;;;;;;;;;;;;25.01;62.1123;101431.2;;;;-69
2023/06/29 10:00:15;;;;;;;0.3;0.1;;;;;;;;;;;;;-69
2023/06/29 10:02:44;;;;;;;;;;;;;;;25.02;62.01074;101431.8;;;;-67
2023/06/29 10:07:45;;;;;;;;;;;;;;;25.05;62.2793;101431.8;;;;-69
2023/06/29 10:12:44;;;;;;;;;;;;;;;24.99;62.48926;101437.7;;;;-68
2023/06/29 10:17:50;;;;;;;;;;;;;;;24.89;62.5459;101431.9;;;;-68
2023/06/29 10:22:45;;;;;;;;;;;;;;;24.73;62.99316;101438;;;;-68
2023/06/29 10:27:45;;;;;;;;;;;;;;;24.68;63.08984;101427.2;;;;-69
2023/06/29 10:30:21;;;;;;;0.2;0.1;;;;;;;;;;;;;-69
2023/06/29 10:32:44;;;;;;;;;;;;;;;24.7;63.28711;101432.4;;;;-69
2023/06/29 10:37:45;;;;;;;;;;;;;;;24.74;63.26953;101425.4;;;;-69
2023/06/29 10:42:58;;;;;;;;;;;;;;;24.78;63.21777;101421.9;;;;-68
2023/06/29 10:47:44;;;;;;;;;;;;;;;24.84;62.54883;101423.5;;;;-69
2023/06/29 10:52:46;;;;;;;;;;;;;;;24.75;62.48926;101421.4;;;;-69
2023/06/29 10:57:48;;;;;;;;;;;;;;;24.5;63.33887;101432.5;;;;-68
2023/06/29 11:00:22;;;;;;;0.2;0;;;;;;;;;;;;;-68
2023/06/29 11:02:45;;;;;;;;;;;;;;;24.37;63.40137;101430.7;;;;-69
2023/06/29 11:07:45;;;;;;;;;;;;;;;24.33;63.46387;101421.8;;;;-70
2023/06/29 11:12:44;;;;;;;;;;;;;;;24.24;63.99023;101424.6;;;;-68
2023/06/29 11:17:45;;;;;;;;;;;;;;;24.35;63.61719;101420.9;;;;-68
2023/06/29 11:22:46;;;;;;;;;;;;;;;24.38;63.4043;101430.5;;;;-69
2023/06/29 11:27:44;;;;;;;;;;;;;;;24.4;63.12012;101431.8;;;;-69
2023/06/29 11:30:27;;;;;;;0.2;0.1;;;;;;;;;;;;;-69
2023/06/29 11:32:45;;;;;;;;;;;;;;;24.26;63.29492;101437.5;;;;-70
2023/06/29 11:37:47;;;;;;;;;;;;;;;24.09;63.76367;101430;;;;-67
2023/06/29 11:42:45;;;;;;;;;;;;;;;24.18;63.57031;101432.5;;;;-69
2023/06/29 11:47:46;;;;;;;;;;;;;;;24.21;63.68848;101433.4;;;;-66
2023/06/29 11:52:46;;;;;;;;;;;;;;;24.3;63.41406;101438.2;;;;-66
2023/06/29 11:57:45;;;;;;;;;;;;;;;24.38;63.25391;101437.6;;;;-67
2023/06/29 12:00:34;;;;;;;0.3;0.2;;;;;;;;;;;;;-66
2023/06/29 12:02:45;;;;;;;;;;;;;;;24.37;62.93164;101432.5;;;;-67
2023/06/29 12:07:45;;;;;;;;;;;;;;;24.26;63.22559;101427.9;;;;-66
2023/06/29 12:12:45;;;;;;;;;;;;;;;24.19;63.05469;101427.2;;;;-67
2023/06/29 12:17:45;;;;;;;;;;;;;;;24.41;62.32813;101421.1;;;;-67
2023/06/29 12:22:44;;;;;;;;;;;;;;;24.62;61.93164;101413.6;;;;-69
2023/06/29 12:27:45;;;;;;;;;;;;;;;24.73;61.6377;101409.2;;;;-69
2023/06/29 12:30:37;;;;;;;0.4;0.2;;;;;;;;;;;;;-69
2023/06/29 12:32:45;;;;;;;;;;;;;;;24.85;61.02344;101408;;;;-69
2023/06/29 12:37:45;;;;;;;;;;;;;;;24.9;60.16602;101413.6;;;;-69
2023/06/29 12:42:44;;;;;;;;;;;;;;;25.04;59.61035;101421.8;;;;-67
2023/06/29 12:47:45;;;;;;;;;;;;;;;25.16;59.28027;101424.1;;;;-68
2023/06/29 12:52:45;;;;;;;;;;;;;;;25.19;58.9502;101427.1;;;;-69
2023/06/29 12:57:45;;;;;;;;;;;;;;;25.11;58.62891;101430.6;;;;-70
2023/06/29 13:00:38;;;;;;;0.3;0.1;;;;;;;;;;;;;-69
2023/06/29 13:02:44;;;;;;;;;;;;;;;25.1;58.57031;101426.2;;;;-69
2023/06/29 13:07:44;;;;;;;;;;;;;;;25.05;58.74805;101432.4;;;;-69
2023/06/29 13:12:44;;;;;;;;;;;;;;;25.01;58.50098;101436.3;;;;-69
2023/06/29 13:17:44;;;;;;;;;;;;;;;24.95;58.41309;101433.8;;;;-70
2023/06/29 13:22:44;;;;;;;;;;;;;;;24.83;58.78711;101434.1;;;;-69
2023/06/29 13:27:46;;;;;;;;;;;;;;;24.76;58.62988;101444.8;;;;-71
2023/06/29 13:30:43;;;;;;;0.3;0.1;;;;;;;;;;;;;-69
2023/06/29 13:32:44;;;;;;;;;;;;;;;24.54;59.09375;101439.6;;;;-69
2023/06/29 13:37:44;;;;;;;;;;;;;;;24.51;59.0332;101442.8;;;;-70
2023/06/29 13:42:44;;;;;;;;;;;;;;;24.52;58.94238;101445;;;;-69
2023/06/29 13:47:46;;;;;;;;;;;;;;;24.52;58.72559;101445.9;;;;-69
2023/06/29 13:52:46;;;;;;;;;;;;;;;24.42;58.67773;101445.7;;;;-68
2023/06/29 13:57:44;;;;;;;;;;;;;;;24.33;58.91895;101446.8;;;;-67
2023/06/29 14:00:49;;;;;;;0.2;0;;;;;;;;;;;;;-69
2023/06/29 14:02:46;;;;;;;;;;;;;;;24.24;58.92871;101442.5;;;;-69
2023/06/29 14:07:44;;;;;;;;;;;;;;;24.26;58.86328;101441.2;;;;-69
2023/06/29 14:12:44;;;;;;;;;;;;;;;24.23;58.80078;101440;;;;-68
2023/06/29 14:17:45;;;;;;;;;;;;;;;24.15;58.95313;101437.1;;;;-70
2023/06/29 14:22:44;;;;;;;;;;;;;;;24.07;59.0332;101439.6;;;;-68
2023/06/29 14:27:44;;;;;;;;;;;;;;;23.89;59.59473;101450.8;;;;-68
2023/06/29 14:30:53;;;;;;;0.2;0;;;;;;;;;;;;;-69
2023/06/29 14:32:44;;;;;;;;;;;;;;;23.67;60.08203;101463.4;;;;-69
2023/06/29 14:37:46;;;;;;;;;;;;;;;23.45;60.5459;101459.2;;;;-68
2023/06/29 14:42:44;;;;;;;;;;;;;;;23.29;60.60352;101463.3;;;;-70
2023/06/29 14:47:44;;;;;;;;;;;;;;;23.23;60.76855;101469.1;;;;-68
2023/06/29 14:52:45;;;;;;;;;;;;;;;23.06;60.62988;101481.4;;;;-69
2023/06/29 14:57:47;;;;;;;;;;;;;;;22.83;61.49219;101484;;;;-70
2023/06/29 15:00:55;;;;;;;0.2;0;;;;;;;;;;;;;-69
2023/06/29 15:02:45;;;;;;;;;;;;;;;22.57;61.74219;101486.7;;;;-68
2023/06/29 15:07:44;;;;;;;;;;;;;;;22.36;61.86133;101490;;;;-69
2023/06/29 15:12:48;;;;;;;;;;;;;;;22.23;62.20996;101489.8;;;;-69
2023/06/29 15:17:45;;;;;;;;;;;;;;;22.12;61.77051;101494.4;;;;-70
2023/06/29 15:22:45;;;;;;;;;;;;;;;22.08;61.18457;101491.1;;;;-69
2023/06/29 15:27:44;;;;;;;;;;;;;;;21.99;61.12598;101497.6;;;;-69
2023/06/29 15:30:59;;;;;;;0.2;0;;;;;;;;;;;;;-68
2023/06/29 15:32:44;;;;;;;;;;;;;;;21.96;59.98047;101497.8;;;;-69
2023/06/29 15:37:44;;;;;;;;;;;;;;;21.85;60.04395;101503.4;;;;-68
2023/06/29 15:42:45;;;;;;;;;;;;;;;21.74;60.20117;101509.6;;;;-72
2023/06/29 15:47:45;;;;;;;;;;;;;;;21.61;60.7998;101509.6;;;;-69
2023/06/29 15:52:44;;;;;;;;;;;;;;;21.49;61.10352;101513.7;;;;-68
2023/06/29 15:57:45;;;;;;;;;;;;;;;21.35;61.41406;101515.1;;;;-71
2023/06/29 16:01:03;;;;;;;0.2;0;;;;;;;;;;;;;-69
2023/06/29 16:02:45;;;;;;;;;;;;;;;21.19;61.42676;101516.9;;;;-70
2023/06/29 16:07:44;;;;;;;;;;;;;;;21.08;61.08203;101517.5;;;;-69
2023/06/29 16:12:45;;;;;;;;;;;;;;;20.98;61.10059;101516.5;;;;-69
2023/06/29 16:17:45;;;;;;;;;;;;;;;20.91;60.95703;101520;;;;-69
2023/06/29 16:22:45;;;;;;;;;;;;;;;20.79;61.97461;101522.7;;;;-68
2023/06/29 16:27:44;;;;;;;;;;;;;;;20.65;61.80762;101527.8;;;;-71
2023/06/29 16:31:07;;;;;;;0.2;0;;;;;;;;;;;;;-74
2023/06/29 16:32:45;;;;;;;;;;;;;;;20.53;61.87109;101525.3;;;;-68
2023/06/29 16:37:46;;;;;;;;;;;;;;;20.44;62.21094;101530;;;;-69
2023/06/29 16:42:44;;;;;;;;;;;;;;;20.38;62.12402;101530.3;;;;-69
2023/06/29 16:47:44;;;;;;;;;;;;;;;20.31;61.98828;101525.7;;;;-68
2023/06/29 16:52:44;;;;;;;;;;;;;;;20.25;61.85449;101539.6;;;;-72
2023/06/29 16:57:45;;;;;;;;;;;;;;;20.16;61.73926;101542;;;;-68
2023/06/29 17:01:09;;;;;;;0.2;0.1;;;;;;;;;;;;;-69
2023/06/29 17:02:44;;;;;;;;;;;;;;;20;61.61621;101555.7;;;;-69
2023/06/29 17:07:44;;;;;;;;;;;;;;;19.85;61.68652;101554.7;;;;-70
2023/06/29 17:12:45;;;;;;;;;;;;;;;19.75;61.35449;101552.3;;;;-67
2023/06/29 17:17:44;;;;;;;;;;;;;;;19.67;61.49121;101547.2;;;;-67
2023/06/29 17:22:45;;;;;;;;;;;;;;;19.66;61.2959;101548.9;;;;-67
2023/06/29 17:27:44;;;;;;;;;;;;;;;19.66;61.0918;101546.2;;;;-68
2023/06/29 17:31:16;;;;;;;0.2;0;;;;;;;;;;;;;-69
2023/06/29 17:32:44;;;;;;;;;;;;;;;19.67;60.85449;101549.2;;;;-69
2023/06/29 17:37:45;;;;;;;;;;;;;;;19.7;60.76758;101558.8;;;;-69
2023/06/29 17:42:47;;;;;;;;;;;;;;;19.68;60.61621;101544.1;;;;-69
2023/06/29 17:47:44;;;;;;;;;;;;;;;19.68;60.62793;101541.6;;;;-68
2023/06/29 17:52:44;;;;;;;;;;;;;;;19.69;60.74316;101543.7;;;;-69
2023/06/29 17:57:45;;;;;;;;;;;;;;;19.68;60.44531;101544.5;;;;-68
2023/06/29 18:01:16;;;;;;;0.2;0;;;;;;;;;;;;;-69
2023/06/29 18:02:44;;;;;;;;;;;;;;;19.65;60.3623;101543.5;;;;-68
2023/06/29 18:07:48;;;;;;;;;;;;;;;19.66;60.625;101550.2;;;;-68
2023/06/29 18:12:45;;;;;;;;;;;;;;;19.65;60.64648;101545.5;;;;-70
2023/06/29 18:17:44;;;;;;;;;;;;;;;19.65;60.69238;101548.5;;;;-70
2023/06/29 18:22:44;;;;;;;;;;;;;;;19.66;61.04688;101537.2;;;;-69
2023/06/29 18:27:44;;;;;;;;;;;;;;;19.64;61.17969;101537.4;;;;-68
2023/06/29 18:31:19;;;;;;;0.2;0.1;;;;;;;;;;;;;-67
2023/06/29 18:32:44;;;;;;;;;;;;;;;19.61;61.32324;101544.3;;;;-69
2023/06/29 18:37:45;;;;;;;;;;;;;;;19.62;61.42676;101541.4;;;;-69
2023/06/29 18:42:44;;;;;;;;;;;;;;;19.59;61.32031;101543.7;;;;-68
2023/06/29 18:47:45;;;;;;;;;;;;;;;19.63;61.28125;101543.1;;;;-68
2023/06/29 18:52:44;;;;;;;;;;;;;;;19.66;61.22754;101536.1;;;;-69
2023/06/29 18:57:44;;;;;;;;;;;;;;;19.67;61.15039;101544.8;;;;-70
2023/06/29 19:01:23;;;;;;;0.2;0;;;;;;;;;;;;;-68
2023/06/29 19:02:44;;;;;;;;;;;;;;;19.68;60.95703;101550.3;;;;-70
2023/06/29 19:07:44;;;;;;;;;;;;;;;19.66;60.97754;101551.6;;;;-71
2023/06/29 19:12:46;;;;;;;;;;;;;;;19.63;61.23438;101552.6;;;;-69
2023/06/29 19:17:44;;;;;;;;;;;;;;;19.57;61.12402;101559.3;;;;-69
2023/06/29 19:22:45;;;;;;;;;;;;;;;19.5;61.05859;101564.7;;;;-67
2023/06/29 19:27:44;;;;;;;;;;;;;;;19.44;61.01563;101560.6;;;;-68
2023/06/29 19:31:24;;;;;;;0.2;0;;;;;;;;;;;;;-68
2023/06/29 19:32:44;;;;;;;;;;;;;;;19.38;61.05371;101563.2;;;;-69
2023/06/29 19:37:44;;;;;;;;;;;;;;;19.33;61.11426;101569.7;;;;-68
2023/06/29 19:42:44;;;;;;;;;;;;;;;19.26;61.20801;101581.1;;;;-68
2023/06/29 19:47:45;;;;;;;;;;;;;;;19.17;61.58105;101581.4;;;;-68
2023/06/29 19:52:44;;;;;;;;;;;;;;;19.07;61.43066;101583.7;;;;-69
2023/06/29 19:57:44;;;;;;;;;;;;;;;19;61.44336;101594.1;;;;-70
2023/06/29 20:01:27;;;;;;;0.2;0;;;;;;;;;;;;;-68
2023/06/29 20:02:44;;;;;;;;;;;;;;;18.9;61.48633;101602.8;;;;-69
2023/06/29 20:07:46;;;;;;;;;;;;;;;18.81;61.46289;101605.3;;;;-69
2023/06/29 20:12:44;;;;;;;;;;;;;;;18.69;61.62793;101612;;;;-67
2023/06/29 20:17:44;;;;;;;;;;;;;;;18.58;61.51074;101618.5;;;;-69
2023/06/29 20:22:44;;;;;;;;;;;;;;;18.41;61.56543;101621.4;;;;-69
2023/06/29 20:27:44;;;;;;;;;;;;;;;18.25;61.58984;101619.1;;;;-69
2023/06/29 20:31:30;;;;;;;0.2;0;;;;;;;;;;;;;-69
2023/06/29 20:32:46;;;;;;;;;;;;;;;18.14;61.6416;101621.4;;;;-68
2023/06/29 20:37:44;;;;;;;;;;;;;;;17.99;61.62109;101623.8;;;;-68
2023/06/29 20:42:44;;;;;;;;;;;;;;;17.88;61.68457;101610.7;;;;-68
2023/06/29 20:47:45;;;;;;;;;;;;;;;17.71;61.80762;101612.6;;;;-70
2023/06/29 20:52:45;;;;;;;;;;;;;;;17.56;61.88965;101612;;;;-68
2023/06/29 20:57:44;;;;;;;;;;;;;;;17.49;62.02539;101604.8;;;;-68
2023/06/29 21:01:33;;;;;;;0.2;0.1;;;;;;;;;;;;;-68
2023/06/29 21:02:44;;;;;;;;;;;;;;;17.3;61.95508;101599.2;;;;-68
2023/06/29 21:07:44;;;;;;;;;;;;;;;17.22;62.06836;101602.6;;;;-69
2023/06/29 21:12:45;;;;;;;;;;;;;;;17.06;62.12402;101602.7;;;;-68
2023/06/29 21:17:44;;;;;;;;;;;;;;;16.96;62.01953;101604.1;;;;-68
2023/06/29 21:22:45;;;;;;;;;;;;;;;16.86;62.00586;101598.1;;;;-68
2023/06/29 21:27:44;;;;;;;;;;;;;;;16.7;62.23145;101592.2;;;;-68
2023/06/29 21:31:36;;;;;;;0.2;0.1;;;;;;;;;;;;;-69
2023/06/29 21:32:45;;;;;;;;;;;;;;;16.65;62.32617;101596.7;;;;-68
2023/06/29 21:37:45;;;;;;;;;;;;;;;16.55;62.07422;101595.2;;;;-70
2023/06/29 21:42:46;;;;;;;;;;;;;;;16.46;62.42383;101601.7;;;;-69
2023/06/29 21:47:44;;;;;;;;;;;;;;;16.33;62.56348;101603.4;;;;-68
2023/06/29 21:52:44;;;;;;;;;;;;;;;16.29;62.23047;101603.4;;;;-68
2023/06/29 21:57:44;;;;;;;;;;;;;;;16.13;62.35645;101607.5;;;;-70
2023/06/29 22:01:38;;;;;;;0.2;0.1;;;;;;;;;;;;;-67
2023/06/29 22:02:45;;;;;;;;;;;;;;;16.01;62.37207;101611;;;;-68
2023/06/29 22:07:47;;;;;;;;;;;;;;;15.94;62.55273;101615.5;;;;-68
2023/06/29 22:12:48;;;;;;;;;;;;;;;15.84;62.59473;101611.7;;;;-69
2023/06/29 22:17:47;;;;;;;;;;;;;;;15.72;62.75684;101607.4;;;;-68
2023/06/29 22:22:46;;;;;;;;;;;;;;;15.61;62.92285;101602.6;;;;-68
2023/06/29 22:27:44;;;;;;;;;;;;;;;15.54;62.78906;101600;;;;-69
2023/06/29 22:31:41;;;;;;;0.2;0;;;;;;;;;;;;;-68
2023/06/29 22:32:44;;;;;;;;;;;;;;;15.44;62.94336;101602.5;;;;-68
2023/06/29 22:37:44;;;;;;;;;;;;;;;15.34;62.83887;101588.2;;;;-67
2023/06/29 22:42:44;;;;;;;;;;;;;;;15.28;62.80859;101598.3;;;;-69
2023/06/29 22:47:44;;;;;;;;;;;;;;;15.23;63.00195;101597;;;;-68
2023/06/29 22:52:44;;;;;;;;;;;;;;;15.13;62.91016;101597.5;;;;-67
2023/06/29 22:57:45;;;;;;;;;;;;;;;15.06;63.09082;101599;;;;-69
2023/06/29 23:01:43;;;;;;;0.2;0.1;;;;;;;;;;;;;-68
2023/06/29 23:02:44;;;;;;;;;;;;;;;14.99;62.85742;101599.1;;;;-69
2023/06/29 23:07:47;;;;;;;;;;;;;;;14.88;62.9873;101607.1;;;;-69
2023/06/29 23:12:45;;;;;;;;;;;;;;;14.86;62.82813;101606.3;;;;-68
2023/06/29 23:17:44;;;;;;;;;;;;;;;14.78;62.83887;101609;;;;-68
2023/06/29 23:22:45;;;;;;;;;;;;;;;14.7;62.97266;101611.1;;;;-68
2023/06/29 23:27:45;;;;;;;;;;;;;;;14.65;63.12207;101615.9;;;;-67
2023/06/29 23:31:45;;;;;;;0.2;0;;;;;;;;;;;;;-68
2023/06/29 23:32:53;;;;;;;;;;;;;;;14.56;63.05273;101619.2;;;;-70
2023/06/29 23:37:44;;;;;;;;;;;;;;;14.45;63.0498;101618.7;;;;-69
2023/06/29 23:42:45;;;;;;;;;;;;;;;14.41;63.05371;101618.7;;;;-70
2023/06/29 23:47:45;;;;;;;;;;;;;;;14.34;62.97656;101614.7;;;;-68
2023/06/29 23:52:44;;;;;;;;;;;;;;;14.26;62.94238;101613.9;;;;-68
2023/06/29 23:57:44;;;;;;;;;;;;;;;14.2;62.94629;101612.5;;;;-68
